createdAt,value
2022-12-24T00:02:32.833Z,98872.44
2022-12-24T00:06:35.493Z,98864.72
2022-12-24T00:10:36.901Z,98875.16
2022-12-24T00:14:38.233Z,98880.41
2022-12-24T00:18:45.408Z,98890.81
2022-12-24T00:22:47.774Z,98900.41
2022-12-24T00:26:49.130Z,98893.56
2022-12-24T00:30:50.538Z,98886.66
2022-12-24T00:34:51.923Z,98873.78
2022-12-24T00:38:53.263Z,98880.72
2022-12-24T00:42:55.183Z,98878.19
2022-12-24T00:46:56.481Z,98892.03
2022-12-24T00:50:57.877Z,98892.94
2022-12-24T00:54:59.229Z,98899.09
2022-12-24T00:59:00.964Z,98894.66
2022-12-24T01:03:02.475Z,98902.41
2022-12-24T01:07:04.073Z,98912.75
2022-12-24T01:11:07.334Z,98924.03
2022-12-24T01:15:09.645Z,98935.28
2022-12-24T01:19:11.213Z,98943.16
2022-12-24T01:23:12.955Z,98951.00
2022-12-24T01:27:14.351Z,98950.16
2022-12-24T01:31:18.320Z,98953.63
2022-12-24T01:35:19.718Z,98960.56
2022-12-24T01:39:21.165Z,98961.41
2022-12-24T01:43:24.045Z,98961.44
2022-12-24T01:47:29.469Z,98964.00
2022-12-24T01:51:37.199Z,98946.69
2022-12-24T01:55:40.156Z,98939.81
2022-12-24T01:59:46.443Z,98939.81
2022-12-24T02:03:48.117Z,98954.56
2022-12-24T02:07:49.908Z,98938.16
2022-12-24T02:11:51.831Z,98942.53
2022-12-24T02:16:08.901Z,98954.63
2022-12-24T02:20:36.908Z,98970.09
2022-12-24T02:25:10.639Z,98954.50
2022-12-24T02:29:38.892Z,98975.19
2022-12-24T02:33:58.917Z,98966.50
2022-12-24T02:38:13.845Z,98979.44
2022-12-24T02:42:20.785Z,98988.03
2022-12-24T02:46:26.102Z,98999.28
2022-12-24T02:50:28.041Z,98993.22
2022-12-24T02:54:30.732Z,98978.56
2022-12-24T02:59:00.422Z,98996.69
2022-12-24T03:03:29.112Z,99012.25
2022-12-24T03:08:12.510Z,99021.72
2022-12-24T03:12:23.270Z,99026.91
2022-12-24T03:16:26.943Z,99025.19
2022-12-24T03:20:36.956Z,99035.53
2022-12-24T03:24:38.429Z,99032.91
2022-12-24T03:28:41.967Z,99034.63
2022-12-24T03:32:43.280Z,99044.09
2022-12-24T03:36:45.310Z,99057.03
2022-12-24T03:40:46.877Z,99035.44
2022-12-24T03:44:48.278Z,99064.81
2022-12-24T03:48:49.709Z,99061.31
2022-12-24T03:52:51.047Z,99052.69
2022-12-24T03:56:52.399Z,99042.28
2022-12-24T04:00:54.103Z,99050.94
2022-12-24T04:04:55.473Z,99069.13
2022-12-24T04:08:56.851Z,99060.53
2022-12-24T04:12:58.219Z,99054.47
2022-12-24T04:17:00.324Z,99061.38
2022-12-24T04:21:01.864Z,99073.50
2022-12-24T04:25:03.401Z,99067.47
2022-12-24T04:29:04.816Z,99058.81
2022-12-24T04:33:06.350Z,99052.75
2022-12-24T04:37:07.679Z,99052.81
2022-12-24T04:41:22.729Z,99063.19
2022-12-24T04:45:25.332Z,99044.19
2022-12-24T04:49:26.788Z,99064.94
2022-12-24T04:53:28.102Z,99052.88
2022-12-24T04:57:32.527Z,99039.94
2022-12-24T05:01:34.041Z,99052.06
2022-12-24T05:05:36.070Z,99045.19
2022-12-24T05:09:37.384Z,99046.09
2022-12-24T05:13:46.186Z,99044.34
2022-12-24T05:17:48.720Z,99053.03
2022-12-24T05:22:10.137Z,99061.69
2022-12-24T05:26:23.579Z,99061.75
2022-12-24T05:30:24.938Z,99086.78
2022-12-24T05:34:26.268Z,99098.88
2022-12-24T05:38:27.625Z,99084.22
2022-12-24T05:42:28.940Z,99086.78
2022-12-24T05:46:30.350Z,99096.28
2022-12-24T05:50:31.776Z,99097.16
2022-12-24T05:54:33.114Z,99103.19
2022-12-24T05:58:35.075Z,99101.44
2022-12-24T06:02:36.840Z,99101.44
2022-12-24T06:06:38.240Z,99110.06
2022-12-24T06:10:39.674Z,99099.66
2022-12-24T06:14:40.997Z,99100.53
2022-12-24T06:18:43.050Z,99103.13
2022-12-24T06:22:44.356Z,99103.97
2022-12-24T06:26:45.924Z,99116.03
2022-12-24T06:30:49.917Z,99113.41
2022-12-24T06:34:51.411Z,99114.28
2022-12-24T06:38:54.868Z,99120.31
2022-12-24T06:42:56.216Z,99122.03
2022-12-24T06:46:57.730Z,99135.88
2022-12-24T06:51:02.444Z,99133.28
2022-12-24T06:55:04.758Z,99128.97
2022-12-24T06:59:06.107Z,99136.78
2022-12-24T07:03:07.401Z,99122.09
2022-12-24T07:07:08.797Z,99138.53
2022-12-24T07:11:10.112Z,99141.13
2022-12-24T07:15:13.120Z,99136.00
2022-12-24T07:19:15.177Z,99134.25
2022-12-24T07:23:16.621Z,99129.09
2022-12-24T07:27:18.043Z,99140.34
2022-12-24T07:31:20.073Z,99144.63
2022-12-24T07:35:21.419Z,99141.19
2022-12-24T07:39:22.996Z,99146.38
2022-12-24T07:43:25.479Z,99152.41
2022-12-24T07:47:26.805Z,99165.34
2022-12-24T07:51:28.117Z,99162.72
2022-12-24T07:55:29.485Z,99171.38
2022-12-24T07:59:30.794Z,99167.03
2022-12-24T08:03:32.398Z,99170.47
2022-12-24T08:07:33.904Z,99167.03
2022-12-24T08:11:35.453Z,99167.03
2022-12-24T08:15:36.812Z,99174.78
2022-12-24T08:19:38.845Z,99177.38
2022-12-24T08:23:40.239Z,99187.72
2022-12-24T08:27:41.632Z,99178.22
2022-12-24T08:31:43.019Z,99183.38
2022-12-24T08:35:52.624Z,99189.44
2022-12-24T08:39:53.947Z,99194.53
2022-12-24T08:43:55.309Z,99205.72
2022-12-24T08:47:59.441Z,99207.41
2022-12-24T08:52:00.861Z,99209.06
2022-12-24T08:56:04.168Z,99223.66
2022-12-24T09:00:07.228Z,99226.16
2022-12-24T09:04:09.541Z,99227.75
2022-12-24T09:08:10.927Z,99223.22
2022-12-24T09:12:12.274Z,99227.28
2022-12-24T09:16:13.878Z,99228.03
2022-12-24T09:20:15.414Z,99229.72
2022-12-24T09:24:17.102Z,99223.78
2022-12-24T09:28:18.427Z,99231.69
2022-12-24T09:32:20.265Z,99237.88
2022-12-24T09:36:21.682Z,99242.25
2022-12-24T09:40:29.073Z,99253.47
2022-12-24T09:44:36.632Z,99263.00
2022-12-24T09:48:44.183Z,99264.72
2022-12-24T09:52:47.448Z,99271.72
2022-12-24T09:56:49.656Z,99270.81
2022-12-24T10:00:52.405Z,99268.28
2022-12-24T10:04:54.795Z,99277.78
2022-12-24T10:09:02.139Z,99271.69
2022-12-24T10:13:21.481Z,99273.34
2022-12-24T10:17:53.543Z,99280.25
2022-12-24T10:22:20.515Z,99290.66
2022-12-24T10:26:34.174Z,99286.31
2022-12-24T10:30:35.920Z,99282.94
2022-12-24T10:34:45.803Z,99282.13
2022-12-24T10:38:47.169Z,99271.78
2022-12-24T10:42:51.600Z,99284.78
2022-12-24T10:46:53.752Z,99292.63
2022-12-24T10:51:06.177Z,99296.13
2022-12-24T10:55:19.647Z,99288.34
2022-12-24T10:59:28.867Z,99290.94
2022-12-24T11:03:33.947Z,99284.94
2022-12-24T11:07:35.399Z,99285.78
2022-12-24T11:11:36.912Z,99289.25
2022-12-24T11:15:38.378Z,99282.31
2022-12-24T11:19:40.265Z,99283.13
2022-12-24T11:23:49.907Z,99288.34
2022-12-24T11:27:52.422Z,99281.31
2022-12-24T11:32:10.967Z,99282.97
2022-12-24T11:36:13.633Z,99276.81
2022-12-24T11:40:24.123Z,99280.22
2022-12-24T11:44:27.426Z,99274.13
2022-12-24T11:48:31.677Z,99277.47
2022-12-24T11:52:33.270Z,99287.88
2022-12-24T11:56:44.704Z,99281.88
2022-12-24T12:00:47.854Z,99281.88
2022-12-24T12:04:57.863Z,99271.53
2022-12-24T12:09:06.807Z,99277.66
2022-12-24T12:13:19.303Z,99274.16
2022-12-24T12:17:32.742Z,99281.06
2022-12-24T12:21:43.803Z,99270.69
2022-12-24T12:26:25.735Z,99274.06
2022-12-24T12:30:28.965Z,99279.13
2022-12-24T12:34:47.838Z,99293.81
2022-12-24T12:38:50.247Z,99299.06
2022-12-24T12:43:14.615Z,99292.13
2022-12-24T12:47:21.845Z,99297.38
2022-12-24T12:51:45.345Z,99291.28
2022-12-24T12:56:10.428Z,99282.53
2022-12-24T13:00:16.356Z,99283.28
2022-12-24T13:04:42.505Z,99279.78
2022-12-24T13:08:58.975Z,99280.78
2022-12-24T13:13:22.534Z,99277.38
2022-12-24T13:17:54.359Z,99270.44
2022-12-24T13:21:56.469Z,99279.88
2022-12-24T13:25:59.142Z,99289.38
2022-12-24T13:30:32.469Z,99292.78
2022-12-24T13:34:36.816Z,99285.88
2022-12-24T13:38:47.072Z,99271.19
2022-12-24T13:43:07.255Z,99289.44
2022-12-24T13:47:14.424Z,99291.22
2022-12-24T13:51:25.637Z,99288.63
2022-12-24T13:55:27.966Z,99306.00
2022-12-24T13:59:34.576Z,99287.91
2022-12-24T14:03:53.763Z,99287.06
2022-12-24T14:07:56.425Z,99285.34
2022-12-24T14:12:03.715Z,99292.31
2022-12-24T14:16:17.254Z,99286.31
2022-12-24T14:20:19.068Z,99284.59
2022-12-24T14:24:25.273Z,99294.16
2022-12-24T14:28:35.300Z,99283.75
2022-12-24T14:32:38.694Z,99294.19
2022-12-24T14:36:44.027Z,99295.06
2022-12-24T14:41:39.397Z,99289.91
2022-12-24T14:45:54.253Z,99296.84
2022-12-24T14:50:19.207Z,99310.69
2022-12-24T14:54:26.612Z,99304.63
2022-12-24T14:58:30.840Z,99310.72
2022-12-24T15:02:51.135Z,99309.00
2022-12-24T15:06:56.674Z,99307.31
2022-12-24T15:11:02.304Z,99313.41
2022-12-24T15:15:05.433Z,99317.75
2022-12-24T15:19:20.038Z,99317.78
2022-12-24T15:23:33.502Z,99325.59
2022-12-24T15:27:39.602Z,99329.09
2022-12-24T15:31:40.987Z,99336.00
2022-12-24T15:35:42.368Z,99331.69
2022-12-24T15:39:45.163Z,99329.94
2022-12-24T15:43:48.509Z,99326.50
2022-12-24T15:47:53.431Z,99332.56
2022-12-24T15:52:03.675Z,99355.09
2022-12-24T15:56:13.624Z,99356.81
2022-12-24T16:00:32.112Z,99359.44
2022-12-24T16:04:33.825Z,99352.53
2022-12-24T16:08:38.890Z,99366.34
2022-12-24T16:12:40.776Z,99369.84
2022-12-24T16:16:46.193Z,99358.63
2022-12-24T16:20:49.673Z,99356.88
2022-12-24T16:24:55.614Z,99362.06
2022-12-24T16:28:57.183Z,99364.66
2022-12-24T16:32:58.583Z,99372.47
2022-12-24T16:37:01.423Z,99373.34
2022-12-24T16:41:02.724Z,99369.88
2022-12-24T16:45:05.034Z,99374.22
2022-12-24T16:49:06.377Z,99385.44
2022-12-24T16:53:17.520Z,99388.91
2022-12-24T16:57:19.467Z,99373.38
2022-12-24T17:01:20.921Z,99365.59
2022-12-24T17:05:23.791Z,99354.34
2022-12-24T17:09:25.978Z,99356.09
2022-12-24T17:13:27.315Z,99347.44
2022-12-24T17:17:30.164Z,99359.56
2022-12-24T17:21:31.763Z,99360.44
2022-12-24T17:25:35.849Z,99355.22
2022-12-24T17:29:37.483Z,99367.34
2022-12-24T17:33:39.153Z,99384.63
2022-12-24T17:37:40.499Z,99396.69
2022-12-24T17:41:41.839Z,99392.38
2022-12-24T17:45:43.489Z,99392.38
2022-12-24T17:49:46.415Z,99392.38
2022-12-24T17:53:48.919Z,99382.03
2022-12-24T17:57:50.323Z,99390.66
2022-12-24T18:01:51.709Z,99379.44
2022-12-24T18:05:53.190Z,99364.75
2022-12-24T18:09:54.520Z,99358.69
2022-12-24T18:13:57.145Z,99352.66
2022-12-24T18:17:59.226Z,99364.72
2022-12-24T18:22:01.177Z,99370.78
2022-12-24T18:26:05.336Z,99380.25
2022-12-24T18:30:08.201Z,99384.56
2022-12-24T18:34:12.990Z,99377.66
2022-12-24T18:38:14.452Z,99392.31
2022-12-24T18:42:15.776Z,99398.38
2022-12-24T18:46:20.519Z,99413.03
2022-12-24T18:50:21.910Z,99408.72
2022-12-24T18:54:23.491Z,99397.50
2022-12-24T18:58:24.828Z,99397.50
2022-12-24T19:02:27.035Z,99408.75
2022-12-24T19:06:28.671Z,99403.59
2022-12-24T19:10:30.028Z,99402.72
2022-12-24T19:14:31.457Z,99407.03
2022-12-24T19:18:33.712Z,99401.84
2022-12-24T19:22:35.247Z,99395.78
2022-12-24T19:26:37.642Z,99399.28
2022-12-24T19:30:42.271Z,99408.75
2022-12-24T19:34:43.725Z,99398.41
2022-12-24T19:38:45.719Z,99407.03
2022-12-24T19:42:48.183Z,99403.59
2022-12-24T19:46:49.492Z,99408.75
2022-12-24T19:50:50.855Z,99416.53
2022-12-24T19:54:52.219Z,99432.06
2022-12-24T19:58:55.704Z,99430.34
2022-12-24T20:02:57.200Z,99437.25
2022-12-24T20:07:00.779Z,99432.94
2022-12-24T20:11:06.869Z,99437.28
2022-12-24T20:15:09.081Z,99435.56
2022-12-24T20:19:14.712Z,99444.16
2022-12-24T20:23:16.776Z,99449.34
2022-12-24T20:27:18.095Z,99433.81
2022-12-24T20:31:22.470Z,99426.91
2022-12-24T20:35:24.777Z,99431.22
2022-12-24T20:39:26.165Z,99415.66
2022-12-24T20:43:34.076Z,99417.38
2022-12-24T20:47:36.859Z,99416.50
2022-12-24T20:51:38.234Z,99397.50
2022-12-24T20:55:39.986Z,99387.13
2022-12-24T20:59:41.396Z,99386.28
2022-12-24T21:03:42.825Z,99398.38
2022-12-24T21:07:44.377Z,99404.41
2022-12-24T21:11:52.256Z,99403.53
2022-12-24T21:15:53.557Z,99418.22
2022-12-24T21:19:55.628Z,99412.16
2022-12-24T21:23:57.249Z,99416.44
2022-12-24T21:27:58.673Z,99415.59
2022-12-24T21:32:00.057Z,99406.13
2022-12-24T21:36:03.377Z,99399.22
2022-12-24T21:40:05.929Z,99399.22
2022-12-24T21:44:07.355Z,99396.63
2022-12-24T21:48:28.652Z,99397.50
2022-12-24T21:52:30.024Z,99398.38
2022-12-24T21:56:31.372Z,99398.38
2022-12-24T22:00:32.763Z,99388.00
2022-12-24T22:04:34.303Z,99390.59
2022-12-24T22:08:54.300Z,99395.81
2022-12-24T22:12:56.092Z,99400.13
2022-12-24T22:16:57.640Z,99388.03
2022-12-24T22:21:02.471Z,99388.03
2022-12-24T22:25:04.249Z,99394.09
2022-12-24T22:29:06.016Z,99403.59
2022-12-24T22:33:09.487Z,99395.81
2022-12-24T22:37:10.875Z,99400.13
2022-12-24T22:41:14.039Z,99411.34
2022-12-24T22:45:21.820Z,99417.41
2022-12-24T22:49:23.708Z,99419.13
2022-12-24T22:53:25.573Z,99419.13
2022-12-24T22:57:27.327Z,99403.59
2022-12-24T23:01:37.500Z,99411.34
2022-12-24T23:05:40.164Z,99426.91
2022-12-24T23:09:41.681Z,99407.03
2022-12-24T23:14:03.415Z,99409.63
2022-12-24T23:18:06.510Z,99403.59
2022-12-24T23:22:08.487Z,99393.22
2022-12-24T23:26:13.020Z,99392.34
2022-12-24T23:30:14.894Z,99390.63
2022-12-24T23:34:16.255Z,99393.22
2022-12-24T23:38:17.898Z,99393.22
2022-12-24T23:42:19.248Z,99401.00
2022-12-24T23:46:21.455Z,99394.94
2022-12-24T23:50:22.990Z,99394.09
2022-12-24T23:54:24.392Z,99385.44
2022-12-24T23:58:26.186Z,99384.59
